Time;durP1;ratioP1;P1;durP2;ratioP2;P2;SDS_P1;SDS_P2;PMS_P1;PMS_P2;Temp;Humidity;BMP_temperature;BMP_pressure;BME280_temperature;BME280_humidity;BME280_pressure;Samples;Min_cycle;Max_cycle;Signal;HPM_P1;HPM_P2
2022/11/30 00:00:53;;;;;;;2.23;1.80;;;6.30;99.90;;;;;;5141268;27;20529;-78
2022/11/30 00:03:20;;;;;;;4.03;1.20;;;6.30;99.90;;;;;;5141022;27;20451;-78
2022/11/30 00:05:47;;;;;;;0.77;0.77;;;6.30;99.90;;;;;;5140643;27;20545;-78
2022/11/30 00:08:13;;;;;;;0.40;0.40;;;6.30;99.90;;;;;;5140633;27;20449;-78
2022/11/30 00:10:41;;;;;;;5.03;1.30;;;6.30;99.90;;;;;;5140973;27;20438;-78
2022/11/30 00:13:08;;;;;;;0.73;0.73;;;6.30;99.90;;;;;;5140948;27;20485;-78
2022/11/30 00:15:35;;;;;;;0.90;0.67;;;6.30;99.90;;;;;;5140681;27;20993;-78
2022/11/30 00:18:04;;;;;;;0.77;0.77;;;6.30;99.90;;;;;;5141023;27;20533;-78
2022/11/30 00:20:31;;;;;;;3.60;1.03;;;6.20;99.90;;;;;;5140351;27;20561;-78
2022/11/30 00:22:57;;;;;;;2.33;0.57;;;6.20;99.90;;;;;;5140521;27;20818;-78
2022/11/30 00:25:25;;;;;;;2.60;1.30;;;6.20;99.90;;;;;;5140793;27;20462;-78
2022/11/30 00:27:52;;;;;;;2.63;0.50;;;6.10;99.90;;;;;;5141031;27;20453;-78
2022/11/30 00:30:19;;;;;;;1.33;0.80;;;6.10;99.90;;;;;;5140732;27;20446;-78
2022/11/30 00:32:46;;;;;;;3.07;0.43;;;6.10;99.90;;;;;;5140623;27;20493;-78
2022/11/30 00:35:14;;;;;;;0.53;0.53;;;6.10;99.90;;;;;;5140636;27;20473;-78
2022/11/30 00:37:41;;;;;;;3.93;0.73;;;6.10;99.90;;;;;;5140688;27;20449;-78
2022/11/30 00:40:08;;;;;;;1.17;0.80;;;6.10;99.90;;;;;;5140658;27;20443;-78
2022/11/30 00:42:35;;;;;;;3.10;0.73;;;6.00;99.90;;;;;;5140337;27;20444;-78
2022/11/30 00:45:02;;;;;;;5.93;1.33;;;6.10;99.90;;;;;;5140265;27;20462;-79
2022/11/30 00:47:29;;;;;;;1.07;0.80;;;6.10;99.90;;;;;;5136491;27;20449;-78
2022/11/30 00:49:55;;;;;;;2.43;1.50;;;6.10;99.90;;;;;;5137160;27;20968;-78
2022/11/30 00:52:23;;;;;;;3.60;0.80;;;6.10;99.90;;;;;;5137247;27;20477;-78
2022/11/30 00:54:50;;;;;;;2.00;0.60;;;6.10;99.90;;;;;;5136881;27;20977;-78
2022/11/30 00:57:17;;;;;;;0.73;0.73;;;6.20;99.90;;;;;;5136902;27;20968;-78
2022/11/30 00:59:44;;;;;;;1.60;1.10;;;6.10;99.90;;;;;;5136822;27;20435;-78
2022/11/30 01:02:10;;;;;;;2.40;2.03;;;6.10;99.90;;;;;;5137146;27;20423;-78
2022/11/30 01:04:37;;;;;;;0.93;0.93;;;6.10;99.90;;;;;;5136963;27;20465;-78
2022/11/30 01:07:04;;;;;;;1.03;0.90;;;6.10;99.90;;;;;;5137051;27;20444;-78
2022/11/30 01:09:32;;;;;;;4.67;1.80;;;6.10;99.90;;;;;;5136966;27;20438;-78
2022/11/30 01:11:59;;;;;;;1.97;1.20;;;6.20;99.90;;;;;;5136584;27;20956;-79
2022/11/30 01:14:26;;;;;;;0.70;0.70;;;6.20;99.90;;;;;;5136843;27;20470;-78
2022/11/30 01:16:53;;;;;;;1.10;1.10;;;6.20;99.90;;;;;;5136829;27;20499;-78
2022/11/30 01:19:19;;;;;;;0.90;0.73;;;6.20;99.90;;;;;;5136620;27;20493;-78
2022/11/30 01:21:46;;;;;;;3.33;1.17;;;6.10;99.90;;;;;;5136818;27;20427;-78
2022/11/30 01:24:13;;;;;;;1.27;0.90;;;6.10;99.90;;;;;;5136648;27;20473;-78
2022/11/30 01:26:41;;;;;;;2.73;1.50;;;6.10;99.90;;;;;;5136639;27;20447;-78
2022/11/30 01:29:08;;;;;;;2.00;1.17;;;6.10;99.90;;;;;;5136575;27;20442;-78
2022/11/30 01:31:35;;;;;;;1.30;1.20;;;6.10;99.90;;;;;;5136511;27;20442;-78
2022/11/30 01:34:02;;;;;;;0.50;0.50;;;6.10;99.90;;;;;;5135978;27;20832;-78
2022/11/30 01:36:29;;;;;;;2.10;0.50;;;6.00;99.90;;;;;;5136436;27;20821;-78
2022/11/30 01:38:57;;;;;;;1.97;1.00;;;5.90;99.90;;;;;;5136409;27;20454;-78
2022/11/30 01:41:27;;;;;;;0.87;0.60;;;5.90;99.90;;;;;;5136379;27;20447;-78
2022/11/30 01:43:57;;;;;;;0.97;0.80;;;5.90;99.90;;;;;;5135889;27;20969;-78
2022/11/30 01:46:28;;;;;;;1.67;0.80;;;5.90;99.90;;;;;;5135947;27;20964;-78
2022/11/30 01:49:00;;;;;;;0.60;0.60;;;5.80;99.90;;;;;;5135969;27;20906;-78
2022/11/30 01:51:30;;;;;;;0.50;0.40;;;5.80;99.90;;;;;;5135901;27;20428;-78
2022/11/30 01:53:58;;;;;;;1.00;1.00;;;5.90;99.90;;;;;;5136002;27;20463;-78
2022/11/30 01:56:25;;;;;;;1.40;1.20;;;5.90;99.90;;;;;;5136093;27;20447;-78
2022/11/30 01:58:52;;;;;;;1.70;1.60;;;5.90;99.90;;;;;;5135855;27;20445;-78
2022/11/30 02:01:20;;;;;;;0.80;0.70;;;5.90;99.90;;;;;;5135956;27;20461;-78
2022/11/30 02:03:52;;;;;;;3.80;1.17;;;5.80;99.90;;;;;;5135919;27;20438;-78
2022/11/30 02:06:19;;;;;;;0.97;0.90;;;5.90;99.90;;;;;;5135904;27;20431;-78
2022/11/30 02:08:46;;;;;;;0.90;0.90;;;5.90;99.90;;;;;;5135787;27;20451;-78
2022/11/30 02:11:15;;;;;;;2.20;0.80;;;5.90;99.90;;;;;;5135447;27;20449;-78
2022/11/30 02:14:00;;;;;;;0.93;0.70;;;5.90;99.90;;;;;;5135631;27;20483;-78
2022/11/30 02:16:40;;;;;;;7.17;2.63;;;5.90;99.90;;;;;;5135707;27;20516;-78
2022/11/30 02:19:25;;;;;;;0.40;0.40;;;5.90;99.90;;;;;;5135387;27;20431;-78
2022/11/30 02:21:59;;;;;;;2.20;0.70;;;5.90;99.90;;;;;;5135575;27;20435;-77
2022/11/30 02:24:41;;;;;;;1.30;1.17;;;5.80;99.90;;;;;;5135485;27;20469;-78
2022/11/30 02:27:17;;;;;;;1.83;0.97;;;5.80;99.90;;;;;;5135471;27;20427;-78
2022/11/30 02:29:48;;;;;;;0.40;0.40;;;5.70;99.90;;;;;;5135461;27;20928;-78
2022/11/30 02:32:21;;;;;;;1.17;0.90;;;5.70;99.90;;;;;;5135309;27;20431;-78
2022/11/30 02:34:49;;;;;;;1.90;0.70;;;5.60;99.90;;;;;;5135255;27;20471;-78
2022/11/30 02:37:17;;;;;;;4.47;0.90;;;5.60;99.90;;;;;;5135239;27;20531;-77
2022/11/30 02:39:44;;;;;;;0.80;0.50;;;5.60;99.90;;;;;;5135206;27;20443;-78
2022/11/30 02:42:12;;;;;;;1.50;0.67;;;5.70;99.90;;;;;;5135127;27;20446;-78
2022/11/30 02:44:40;;;;;;;1.27;1.03;;;5.70;99.90;;;;;;5135094;27;20463;-78
2022/11/30 02:47:19;;;;;;;4.03;1.33;;;5.70;99.90;;;;;;5134730;27;20458;-77
2022/11/30 02:49:51;;;;;;;2.50;0.80;;;5.70;99.90;;;;;;5135770;27;20442;-77
2022/11/30 02:52:22;;;;;;;2.90;0.80;;;5.70;99.90;;;;;;5135382;27;20884;-77
2022/11/30 02:54:48;;;;;;;9.83;1.70;;;5.70;99.90;;;;;;5134887;27;20949;-77
2022/11/30 02:57:15;;;;;;;1.27;0.60;;;5.70;99.90;;;;;;5134644;27;20445;-77
2022/11/30 02:59:42;;;;;;;8.00;1.20;;;5.80;99.90;;;;;;5134877;27;20449;-78
2022/11/30 03:02:09;;;;;;;2.37;1.30;;;5.70;99.90;;;;;;5134814;27;20451;-77
2022/11/30 03:04:37;;;;;;;2.87;1.03;;;5.70;99.90;;;;;;5134395;27;20463;-77
2022/11/30 03:07:04;;;;;;;0.60;0.50;;;5.70;99.90;;;;;;5134788;27;20417;-77
2022/11/30 03:09:31;;;;;;;1.67;1.57;;;5.70;99.90;;;;;;5134188;27;20438;-77
2022/11/30 03:11:57;;;;;;;4.43;1.77;;;5.70;99.90;;;;;;5134650;27;20469;-77
2022/11/30 03:14:24;;;;;;;1.00;0.90;;;5.70;99.90;;;;;;5134407;27;20512;-77
2022/11/30 03:16:51;;;;;;;1.13;0.63;;;5.70;99.90;;;;;;5134267;27;20965;-78
2022/11/30 03:19:17;;;;;;;0.97;0.97;;;5.70;99.90;;;;;;5134305;27;20479;-78
2022/11/30 03:21:47;;;;;;;1.10;1.00;;;5.70;99.90;;;;;;5134255;27;20997;-78
2022/11/30 03:24:13;;;;;;;1.27;1.17;;;5.60;99.90;;;;;;5134721;27;20986;-78
2022/11/30 03:26:40;;;;;;;2.47;0.67;;;5.70;99.90;;;;;;5134478;27;20442;-77
2022/11/30 03:29:07;;;;;;;3.67;0.93;;;5.70;99.90;;;;;;5134129;27;20443;-77
2022/11/30 03:31:34;;;;;;;1.00;0.97;;;5.70;99.90;;;;;;5134127;27;20447;-77
2022/11/30 03:34:00;;;;;;;0.83;0.70;;;5.70;99.90;;;;;;5133954;27;20470;-77
2022/11/30 03:36:27;;;;;;;4.17;3.10;;;5.70;99.90;;;;;;5134035;27;20960;-77
2022/11/30 03:38:55;;;;;;;1.50;0.60;;;5.70;99.90;;;;;;5134387;27;20454;-77
2022/11/30 03:41:22;;;;;;;1.33;0.60;;;5.70;99.90;;;;;;5134354;27;20447;-77
2022/11/30 03:43:49;;;;;;;0.50;0.40;;;5.70;99.90;;;;;;5134518;27;20454;-78
2022/11/30 03:46:15;;;;;;;0.60;0.60;;;5.70;99.90;;;;;;5134332;27;20582;-77
2022/11/30 03:48:42;;;;;;;1.43;0.80;;;5.70;99.90;;;;;;5134284;27;20439;-77
2022/11/30 03:51:10;;;;;;;1.23;0.90;;;5.60;99.90;;;;;;5134308;27;20439;-77
2022/11/30 03:53:37;;;;;;;3.90;0.70;;;5.60;99.90;;;;;;5134172;27;20479;-77
2022/11/30 03:56:07;;;;;;;0.40;0.40;;;5.60;99.90;;;;;;5133851;27;20467;-77
2022/11/30 03:58:35;;;;;;;0.53;0.53;;;5.60;99.90;;;;;;5133906;27;20446;-77
2022/11/30 04:01:03;;;;;;;1.37;0.97;;;5.70;99.90;;;;;;5134141;27;20443;-77
2022/11/30 04:03:31;;;;;;;0.70;0.70;;;5.70;99.90;;;;;;5134152;27;20453;-77
2022/11/30 04:05:58;;;;;;;0.50;0.50;;;5.70;99.90;;;;;;5134125;27;20473;-77
2022/11/30 04:08:26;;;;;;;2.40;1.07;;;5.70;99.90;;;;;;5134113;27;20443;-77
2022/11/30 04:10:53;;;;;;;2.97;1.00;;;5.60;99.90;;;;;;5133769;27;20446;-78
2022/11/30 04:13:22;;;;;;;1.10;0.90;;;5.70;99.90;;;;;;5133666;27;20853;-78
2022/11/30 04:15:51;;;;;;;3.13;0.90;;;5.70;99.90;;;;;;5133982;27;20459;-78
2022/11/30 04:18:19;;;;;;;0.60;0.40;;;5.60;99.90;;;;;;5134028;27;20446;-77
2022/11/30 04:20:46;;;;;;;1.83;0.77;;;5.60;99.90;;;;;;5133640;27;20577;-77
2022/11/30 04:23:13;;;;;;;0.60;0.60;;;5.60;99.90;;;;;;5137904;27;20438;-77
2022/11/30 04:25:41;;;;;;;3.50;1.70;;;5.60;99.90;;;;;;5137800;27;20825;-78
2022/11/30 04:28:09;;;;;;;1.13;1.13;;;5.60;99.90;;;;;;5137847;27;20526;-77
2022/11/30 04:30:37;;;;;;;0.77;0.70;;;5.60;99.90;;;;;;5137501;27;20441;-77
2022/11/30 04:33:05;;;;;;;11.50;0.83;;;5.60;99.90;;;;;;5137309;27;20474;-78
2022/11/30 04:35:32;;;;;;;2.10;0.60;;;5.60;99.90;;;;;;5137589;27;20462;-77
2022/11/30 04:37:59;;;;;;;0.80;0.80;;;5.60;99.90;;;;;;5137604;27;20442;-78
2022/11/30 04:40:26;;;;;;;1.27;0.50;;;5.60;99.90;;;;;;5137600;27;20446;-78
2022/11/30 04:42:53;;;;;;;3.10;1.43;;;5.60;99.90;;;;;;5137530;27;20450;-78
2022/11/30 04:45:19;;;;;;;1.00;0.90;;;5.60;99.90;;;;;;5137404;27;20467;-78
2022/11/30 04:47:47;;;;;;;1.37;0.50;;;5.60;99.90;;;;;;5137422;27;20450;-78
2022/11/30 04:50:14;;;;;;;5.50;1.17;;;5.60;99.90;;;;;;5137390;27;20454;-78
2022/11/30 04:52:41;;;;;;;3.03;0.60;;;5.60;99.90;;;;;;5137325;27;20447;-78
2022/11/30 04:55:08;;;;;;;0.97;0.70;;;5.60;99.90;;;;;;5137141;27;20497;-78
2022/11/30 04:57:35;;;;;;;0.40;0.33;;;5.60;99.90;;;;;;5137221;27;20439;-78
2022/11/30 05:00:02;;;;;;;1.13;0.40;;;5.60;99.90;;;;;;5137144;27;20446;-78
2022/11/30 05:02:30;;;;;;;2.67;1.00;;;5.60;99.90;;;;;;5137131;27;20443;-78
2022/11/30 05:04:58;;;;;;;3.17;0.80;;;5.70;99.90;;;;;;5137024;27;20489;-78
2022/11/30 05:07:24;;;;;;;1.73;0.50;;;5.70;99.90;;;;;;5136748;27;20929;-78
2022/11/30 05:09:52;;;;;;;0.50;0.40;;;5.70;99.90;;;;;;5136649;27;20897;-78
2022/11/30 05:12:19;;;;;;;1.23;0.50;;;5.70;99.90;;;;;;5136853;27;20537;-78
2022/11/30 05:14:46;;;;;;;0.83;0.83;;;5.80;99.90;;;;;;5136767;27;20490;-78
2022/11/30 05:17:13;;;;;;;1.13;0.70;;;5.80;99.90;;;;;;5136861;27;20438;-78
2022/11/30 05:19:39;;;;;;;0.53;0.50;;;5.80;99.90;;;;;;5136518;27;20563;-78
2022/11/30 05:22:07;;;;;;;0.70;0.60;;;5.80;99.90;;;;;;5136734;27;20446;-78
2022/11/30 05:24:34;;;;;;;0.50;0.50;;;5.80;99.90;;;;;;5136640;27;20463;-78
2022/11/30 05:27:01;;;;;;;0.40;0.40;;;5.80;99.90;;;;;;5136642;27;20449;-78
2022/11/30 05:29:28;;;;;;;0.60;0.60;;;5.80;99.90;;;;;;5136575;27;20453;-78
2022/11/30 05:31:54;;;;;;;5.50;1.10;;;5.80;99.90;;;;;;5136034;27;20447;-78
2022/11/30 05:34:21;;;;;;;4.90;0.90;;;5.80;99.90;;;;;;5136050;27;21023;-78
2022/11/30 05:36:48;;;;;;;0.43;0.40;;;5.70;99.90;;;;;;5136148;27;20810;-78
2022/11/30 05:39:16;;;;;;;1.00;0.63;;;5.70;99.90;;;;;;5136470;27;20451;-78
2022/11/30 05:41:43;;;;;;;0.73;0.70;;;5.70;99.90;;;;;;5136401;27;20472;-79
2022/11/30 05:44:10;;;;;;;2.97;0.60;;;5.70;99.90;;;;;;5136272;27;20447;-79
2022/11/30 05:46:37;;;;;;;1.00;0.50;;;5.70;99.90;;;;;;5135971;27;21022;-79
2022/11/30 05:49:04;;;;;;;3.03;0.60;;;5.70;99.90;;;;;;5136227;27;20446;-79
2022/11/30 05:51:31;;;;;;;0.73;0.70;;;5.70;99.90;;;;;;5136218;27;20443;-79
2022/11/30 05:53:58;;;;;;;0.63;0.53;;;5.70;99.90;;;;;;5136207;27;20485;-79
2022/11/30 05:56:26;;;;;;;0.50;0.50;;;5.70;99.90;;;;;;5135774;27;20930;-79
2022/11/30 05:58:53;;;;;;;2.20;1.07;;;5.70;99.90;;;;;;5136038;27;20443;-79
2022/11/30 06:01:21;;;;;;;1.23;1.07;;;5.70;99.90;;;;;;5136020;27;20447;-79
2022/11/30 06:03:48;;;;;;;1.30;0.80;;;5.60;99.90;;;;;;5135920;27;20439;-79
2022/11/30 06:06:15;;;;;;;3.50;0.80;;;5.70;99.90;;;;;;5136063;27;20503;-79
2022/11/30 06:08:42;;;;;;;0.57;0.57;;;5.70;99.90;;;;;;5135499;27;20453;-79
2022/11/30 06:11:09;;;;;;;2.70;1.23;;;5.70;99.90;;;;;;5135890;27;20443;-79
2022/11/30 06:13:38;;;;;;;1.63;0.60;;;5.70;99.90;;;;;;5135771;27;20486;-79
2022/11/30 06:16:06;;;;;;;3.13;1.20;;;5.70;99.90;;;;;;5135384;27;21004;-79
2022/11/30 06:18:33;;;;;;;4.70;0.73;;;5.70;99.90;;;;;;5135670;27;20449;-79
2022/11/30 06:21:01;;;;;;;0.80;0.50;;;5.70;99.90;;;;;;5135207;27;20478;-79
2022/11/30 06:23:28;;;;;;;1.83;0.87;;;5.70;99.90;;;;;;5135633;27;20626;-79
2022/11/30 06:25:55;;;;;;;0.40;0.40;;;5.70;99.90;;;;;;5135105;27;20830;-79
2022/11/30 06:28:21;;;;;;;0.90;0.60;;;5.70;99.90;;;;;;5135500;27;20443;-79
2022/11/30 06:30:49;;;;;;;2.93;1.57;;;5.70;99.90;;;;;;5135705;27;20452;-79
2022/11/30 06:33:16;;;;;;;0.50;0.50;;;5.80;99.90;;;;;;5135007;27;20977;-79
2022/11/30 06:35:45;;;;;;;0.40;0.40;;;5.80;99.90;;;;;;5135252;27;20469;-79
2022/11/30 06:38:12;;;;;;;0.43;0.43;;;5.80;99.90;;;;;;5135291;27;20498;-79
2022/11/30 06:40:39;;;;;;;0.83;0.40;;;5.80;99.90;;;;;;5134913;27;20439;-79
2022/11/30 06:43:06;;;;;;;0.40;0.40;;;5.80;99.90;;;;;;5135012;27;20454;-79
2022/11/30 06:45:33;;;;;;;1.73;1.17;;;5.80;99.90;;;;;;5134546;27;20459;-79
2022/11/30 06:48:01;;;;;;;1.60;1.00;;;5.80;99.90;;;;;;5135135;27;20469;-79
2022/11/30 06:50:27;;;;;;;0.80;0.80;;;5.80;99.90;;;;;;5135105;27;20449;-79
2022/11/30 06:52:55;;;;;;;0.80;0.80;;;5.80;99.90;;;;;;5135086;27;20447;-79
2022/11/30 06:55:22;;;;;;;3.03;0.53;;;5.80;99.90;;;;;;5134873;27;20496;-79
2022/11/30 06:57:49;;;;;;;2.00;0.50;;;5.80;99.90;;;;;;5134972;27;20439;-79
2022/11/30 07:00:17;;;;;;;0.80;0.80;;;5.80;99.90;;;;;;5134954;27;20446;-79
2022/11/30 07:02:44;;;;;;;1.50;0.87;;;5.70;99.90;;;;;;5134876;27;20458;-80
2022/11/30 07:05:12;;;;;;;2.60;1.10;;;5.70;99.90;;;;;;5134774;27;20459;-79
2022/11/30 07:07:39;;;;;;;1.30;1.20;;;5.80;99.90;;;;;;5134898;27;20443;-79
2022/11/30 07:10:07;;;;;;;0.80;0.77;;;5.70;99.90;;;;;;5134828;27;20469;-79
2022/11/30 07:12:35;;;;;;;1.90;0.67;;;5.70;99.90;;;;;;5134804;27;20447;-79
2022/11/30 07:15:02;;;;;;;2.67;1.60;;;5.90;99.90;;;;;;5134597;27;20490;-79
2022/11/30 07:17:28;;;;;;;0.50;0.50;;;5.90;99.90;;;;;;5134611;27;20454;-79
2022/11/30 07:19:55;;;;;;;4.50;0.70;;;5.90;99.90;;;;;;5134490;27;20475;-77
2022/11/30 07:22:23;;;;;;;0.60;0.60;;;5.90;99.90;;;;;;5134269;27;20938;-77
2022/11/30 07:27:34;;;;;;;2.33;0.83;;;5.90;99.90;;;;;;5134592;27;20418;-77
2022/11/30 07:30:01;;;;;;;3.27;0.80;;;5.90;99.90;;;;;;5134406;27;20975;-77
2022/11/30 07:32:28;;;;;;;1.70;1.13;;;6.00;99.90;;;;;;5134154;27;20921;-77
2022/11/30 07:34:54;;;;;;;5.13;0.50;;;6.10;99.90;;;;;;5134302;27;20493;-77
2022/11/30 07:37:23;;;;;;;7.40;1.00;;;6.10;99.90;;;;;;5134486;27;20439;-77
2022/11/30 07:39:49;;;;;;;0.80;0.77;;;6.10;99.90;;;;;;5134377;27;20925;-77
2022/11/30 07:42:16;;;;;;;0.63;0.57;;;6.10;99.90;;;;;;5134059;27;20454;-77
2022/11/30 07:44:43;;;;;;;0.50;0.50;;;6.00;99.90;;;;;;5134206;27;20463;-77
2022/11/30 07:47:10;;;;;;;2.23;1.00;;;6.00;99.90;;;;;;5134188;27;20443;-77
2022/11/30 07:49:38;;;;;;;6.40;1.40;;;6.00;99.90;;;;;;5134555;27;20447;-77
2022/11/30 07:52:05;;;;;;;1.00;0.87;;;6.00;99.90;;;;;;5134287;27;20447;-77
2022/11/30 07:54:33;;;;;;;0.57;0.53;;;6.10;99.90;;;;;;5133793;27;21020;-77
2022/11/30 07:57:00;;;;;;;0.50;0.40;;;6.20;99.90;;;;;;5138030;27;20953;-77
2022/11/30 07:59:27;;;;;;;2.83;1.20;;;6.30;99.90;;;;;;5138603;27;20447;-77
2022/11/30 08:01:53;;;;;;;0.57;0.57;;;6.30;99.90;;;;;;5138308;27;20447;-77
2022/11/30 08:04:20;;;;;;;0.63;0.63;;;6.30;99.90;;;;;;5138253;27;20546;-77
2022/11/30 08:06:47;;;;;;;1.23;1.10;;;6.40;99.90;;;;;;5138238;27;20526;-78
2022/11/30 08:09:14;;;;;;;4.00;2.27;;;6.40;99.90;;;;;;5138287;27;20442;-78
2022/11/30 08:11:42;;;;;;;1.50;0.90;;;6.40;99.90;;;;;;5138355;27;20446;-78
2022/11/30 08:14:11;;;;;;;0.90;0.90;;;6.40;99.90;;;;;;5138045;27;20474;-77
2022/11/30 08:16:38;;;;;;;1.33;0.50;;;6.40;99.90;;;;;;5138039;27;20451;-78
2022/11/30 08:19:05;;;;;;;3.10;2.33;;;6.30;99.90;;;;;;5137767;27;20465;-78
2022/11/30 08:21:32;;;;;;;7.90;1.10;;;6.20;99.90;;;;;;5138136;27;20423;-78
2022/11/30 08:23:58;;;;;;;2.00;0.67;;;6.30;99.90;;;;;;5137917;27;20443;-78
2022/11/30 08:26:27;;;;;;;0.90;0.90;;;6.30;99.90;;;;;;5137857;27;20446;-78
2022/11/30 08:28:56;;;;;;;3.33;0.90;;;6.40;99.90;;;;;;5137801;27;20449;-78
2022/11/30 08:31:25;;;;;;;2.10;0.73;;;6.40;99.90;;;;;;5137470;27;20938;-78
2022/11/30 08:33:55;;;;;;;0.40;0.30;;;6.40;99.90;;;;;;5137279;27;20800;-78
2022/11/30 08:36:23;;;;;;;1.30;1.00;;;6.40;99.90;;;;;;5137660;27;20491;-77
2022/11/30 08:38:50;;;;;;;7.00;0.97;;;6.40;99.90;;;;;;5137549;27;20445;-77
2022/11/30 08:41:20;;;;;;;1.53;0.90;;;6.40;99.90;;;;;;5137532;27;20533;-77
2022/11/30 08:43:47;;;;;;;1.40;1.30;;;6.40;99.90;;;;;;5137499;27;20489;-78
2022/11/30 08:46:16;;;;;;;0.67;0.60;;;6.30;99.90;;;;;;5137110;27;21011;-78
2022/11/30 08:48:43;;;;;;;1.10;1.10;;;6.30;99.90;;;;;;5137484;27;20423;-78
2022/11/30 08:51:12;;;;;;;1.63;0.87;;;6.30;99.90;;;;;;5137334;27;20447;-78
2022/11/30 08:53:39;;;;;;;1.13;0.80;;;6.30;99.90;;;;;;5137055;27;20499;-78
2022/11/30 08:56:09;;;;;;;3.17;1.27;;;6.30;99.90;;;;;;5137248;27;20482;-78
2022/11/30 08:58:38;;;;;;;0.50;0.50;;;6.30;99.90;;;;;;5137239;27;20442;-78
2022/11/30 09:01:09;;;;;;;0.93;0.53;;;6.30;99.90;;;;;;5137086;27;20442;-77
2022/11/30 09:03:37;;;;;;;2.27;1.27;;;6.30;99.90;;;;;;5137128;27;20454;-77
2022/11/30 09:06:06;;;;;;;3.43;0.97;;;6.30;99.90;;;;;;5136942;27;20550;-77
2022/11/30 09:08:34;;;;;;;1.20;1.10;;;6.40;99.90;;;;;;5136051;27;20447;-77
2022/11/30 09:11:08;;;;;;;2.73;0.57;;;6.50;99.90;;;;;;5136713;27;21055;-77
2022/11/30 09:13:34;;;;;;;4.00;1.00;;;6.60;99.90;;;;;;5136858;27;20423;-77
2022/11/30 09:16:01;;;;;;;11.20;1.20;;;6.60;99.90;;;;;;5136815;27;20490;-77
2022/11/30 09:18:28;;;;;;;1.30;1.30;;;6.60;99.90;;;;;;5136929;27;20449;-77
2022/11/30 09:21:00;;;;;;;5.43;1.00;;;6.60;99.90;;;;;;5136625;27;20482;-77
2022/11/30 09:23:28;;;;;;;4.10;1.33;;;6.70;99.90;;;;;;5136829;27;20431;-77
2022/11/30 09:25:56;;;;;;;4.00;1.00;;;6.70;99.90;;;;;;5136646;27;20466;-78
2022/11/30 09:28:24;;;;;;;5.43;1.90;;;6.90;99.90;;;;;;5136790;27;20447;-78
2022/11/30 09:30:51;;;;;;;4.10;1.30;;;7.00;99.90;;;;;;5136729;27;20439;-77
2022/11/30 09:33:18;;;;;;;1.83;1.30;;;7.10;99.90;;;;;;5136386;27;20786;-77
2022/11/30 09:35:45;;;;;;;0.90;0.90;;;7.20;99.90;;;;;;5136488;27;20482;-78
2022/11/30 09:38:13;;;;;;;0.70;0.70;;;7.20;99.90;;;;;;5136522;27;20802;-78
2022/11/30 09:40:41;;;;;;;0.90;0.87;;;7.20;99.90;;;;;;5136425;27;20494;-78
2022/11/30 09:43:22;;;;;;;0.50;0.50;;;7.20;99.90;;;;;;5136102;27;20968;-77
2022/11/30 09:45:56;;;;;;;4.13;1.03;;;7.20;99.90;;;;;;5136292;27;20459;-77
2022/11/30 09:48:37;;;;;;;0.97;0.97;;;7.20;99.90;;;;;;5136317;27;20427;-77
2022/11/30 09:51:11;;;;;;;0.47;0.47;;;7.20;99.90;;;;;;5135946;27;20910;-77
2022/11/30 09:53:43;;;;;;;1.57;1.27;;;7.20;99.90;;;;;;5136246;27;20427;-77
2022/11/30 09:56:19;;;;;;;1.13;0.90;;;7.20;99.90;;;;;;5136037;27;20500;-77
2022/11/30 09:58:48;;;;;;;3.87;0.73;;;7.10;99.90;;;;;;5135890;27;20970;-77
2022/11/30 10:01:18;;;;;;;1.37;0.50;;;7.10;99.90;;;;;;5136003;27;20534;-77
2022/11/30 10:03:45;;;;;;;1.00;1.00;;;7.20;99.90;;;;;;5136040;27;20521;-77
2022/11/30 10:06:18;;;;;;;4.50;1.30;;;7.20;99.90;;;;;;5135799;27;20458;-78
2022/11/30 10:08:57;;;;;;;6.17;1.10;;;7.30;99.90;;;;;;5135891;27;20427;-78
2022/11/30 10:11:53;;;;;;;2.57;0.77;;;7.40;99.90;;;;;;5135864;27;20445;-78
2022/11/30 10:14:46;;;;;;;1.30;0.80;;;7.50;99.90;;;;;;5122263;27;20481;-77
2022/11/30 10:17:25;;;;;;;7.23;2.20;;;7.60;99.90;;;;;;5128522;27;20443;-77
2022/11/30 10:20:06;;;;;;;4.03;1.33;;;7.60;99.90;;;;;;5135187;27;20478;-77
2022/11/30 10:22:52;;;;;;;3.60;1.00;;;7.50;99.90;;;;;;5135893;27;20898;-78
2022/11/30 10:25:23;;;;;;;0.93;0.77;;;7.50;99.90;;;;;;5135588;27;20483;-78
2022/11/30 10:27:52;;;;;;;2.73;0.77;;;7.50;99.90;;;;;;5135201;27;20438;-78
2022/11/30 10:30:22;;;;;;;3.80;1.73;;;7.40;99.90;;;;;;5136015;27;20439;-78
2022/11/30 10:32:52;;;;;;;2.00;0.80;;;7.40;99.90;;;;;;5135094;27;20476;-77
2022/11/30 10:35:27;;;;;;;0.47;0.43;;;7.40;99.90;;;;;;5135356;27;20543;-78
2022/11/30 10:37:55;;;;;;;1.40;1.20;;;7.40;99.90;;;;;;5135472;27;20439;-78
2022/11/30 10:40:36;;;;;;;6.00;1.03;;;7.50;99.90;;;;;;5135302;27;20450;-77
2022/11/30 10:43:15;;;;;;;1.90;1.80;;;7.50;99.90;;;;;;5135276;27;20423;-77
2022/11/30 10:45:47;;;;;;;1.80;1.70;;;7.60;99.90;;;;;;5135242;27;20526;-77
2022/11/30 10:48:20;;;;;;;1.07;0.97;;;7.70;99.90;;;;;;5135307;27;20496;-77
2022/11/30 10:50:47;;;;;;;1.03;0.60;;;7.60;99.90;;;;;;5135271;27;20437;-77
2022/11/30 10:53:14;;;;;;;1.13;1.10;;;7.60;99.90;;;;;;5134978;27;20778;-78
2022/11/30 10:55:45;;;;;;;0.80;0.80;;;7.60;99.90;;;;;;5134792;27;20985;-78
2022/11/30 10:58:19;;;;;;;1.67;0.67;;;7.70;99.90;;;;;;5135055;27;20427;-78
2022/11/30 11:00:55;;;;;;;7.87;0.87;;;7.60;99.90;;;;;;5135021;27;20472;-78
2022/11/30 11:03:24;;;;;;;1.00;0.60;;;7.70;99.90;;;;;;5134912;27;20431;-78
2022/11/30 11:06:06;;;;;;;1.53;0.60;;;7.80;99.90;;;;;;5134425;27;21008;-78
2022/11/30 11:08:33;;;;;;;2.20;0.50;;;7.70;99.90;;;;;;5135090;27;20430;-77
2022/11/30 11:11:01;;;;;;;3.03;0.90;;;7.60;99.90;;;;;;5134793;27;20522;-78
2022/11/30 11:13:39;;;;;;;5.50;1.23;;;7.50;99.90;;;;;;5135526;27;20446;-77
2022/11/30 11:16:08;;;;;;;2.20;0.77;;;7.50;99.90;;;;;;5134535;27;20489;-78
2022/11/30 11:18:36;;;;;;;2.20;1.20;;;7.40;99.90;;;;;;5135241;27;20443;-78
2022/11/30 11:21:05;;;;;;;3.57;1.20;;;7.40;99.90;;;;;;5134486;27;20474;-78
2022/11/30 11:23:35;;;;;;;1.23;1.10;;;7.40;99.90;;;;;;5134604;27;20437;-78
2022/11/30 11:26:05;;;;;;;5.60;1.07;;;7.40;99.90;;;;;;5134792;27;20466;-78
2022/11/30 11:28:34;;;;;;;1.57;0.90;;;7.30;99.90;;;;;;5134140;27;20781;-77
2022/11/30 11:31:14;;;;;;;0.80;0.80;;;7.30;99.90;;;;;;5133712;27;20447;-77
2022/11/30 11:33:50;;;;;;;0.70;0.30;;;7.20;99.90;;;;;;5134209;27;20898;-77
2022/11/30 11:36:25;;;;;;;0.60;0.60;;;7.20;99.90;;;;;;5134385;27;20466;-77
2022/11/30 11:38:52;;;;;;;0.93;0.83;;;7.20;99.90;;;;;;5134141;27;20418;-77
2022/11/30 11:41:24;;;;;;;2.40;0.60;;;7.20;99.90;;;;;;5134104;27;20933;-77
2022/11/30 11:44:01;;;;;;;3.57;1.70;;;7.10;99.90;;;;;;5134415;27;20431;-77
2022/11/30 11:46:29;;;;;;;4.97;1.20;;;7.20;99.90;;;;;;5134135;27;20909;-77
2022/11/30 11:48:58;;;;;;;0.57;0.57;;;7.20;99.90;;;;;;5134075;27;20423;-78
2022/11/30 11:51:30;;;;;;;0.90;0.60;;;7.10;99.90;;;;;;5134333;27;20442;-77
2022/11/30 11:54:01;;;;;;;2.50;1.33;;;7.10;99.90;;;;;;5134175;27;20906;-77
2022/11/30 11:56:31;;;;;;;2.43;1.23;;;7.00;99.90;;;;;;5134097;27;20470;-77
2022/11/30 11:59:01;;;;;;;3.40;0.80;;;7.00;99.90;;;;;;5133882;27;20976;-77
2022/11/30 12:01:42;;;;;;;1.07;0.60;;;6.80;99.90;;;;;;5134207;27;20454;-77
2022/11/30 12:04:36;;;;;;;0.90;0.90;;;6.80;99.90;;;;;;5134103;27;20454;-78
2022/11/30 12:07:10;;;;;;;0.90;0.90;;;6.80;99.90;;;;;;5133859;27;20834;-78
2022/11/30 12:09:44;;;;;;;1.87;0.70;;;6.80;99.90;;;;;;5134143;27;20428;-77
2022/11/30 12:12:13;;;;;;;0.80;0.80;;;6.80;99.90;;;;;;5134114;27;20423;-77
2022/11/30 12:14:40;;;;;;;0.30;0.30;;;6.90;99.90;;;;;;5134219;27;20791;-77
2022/11/30 12:17:26;;;;;;;1.00;0.87;;;7.00;99.90;;;;;;5133669;27;20993;-77
2022/11/30 12:20:01;;;;;;;1.63;0.40;;;7.00;99.90;;;;;;5133688;27;20481;-77
2022/11/30 12:22:48;;;;;;;2.40;0.70;;;7.00;99.90;;;;;;5134014;27;20431;-77
2022/11/30 12:25:25;;;;;;;1.60;0.90;;;7.00;99.90;;;;;;5133883;27;20473;-77
2022/11/30 12:28:05;;;;;;;3.40;0.63;;;7.00;99.90;;;;;;5133756;27;20940;-78
2022/11/30 12:30:40;;;;;;;0.43;0.43;;;7.00;99.90;;;;;;5133980;27;20426;-78
2022/11/30 12:33:18;;;;;;;0.53;0.53;;;6.90;99.90;;;;;;5133917;27;20500;-78
2022/11/30 12:35:58;;;;;;;0.77;0.77;;;7.00;99.90;;;;;;5133713;27;20573;-77
2022/11/30 12:38:36;;;;;;;0.33;0.30;;;7.00;99.90;;;;;;5133769;27;20480;-77
2022/11/30 12:41:18;;;;;;;0.67;0.67;;;6.90;99.90;;;;;;5133877;27;20901;-77
2022/11/30 12:43:54;;;;;;;0.73;0.50;;;6.90;99.90;;;;;;5137077;27;20427;-78
2022/11/30 12:46:28;;;;;;;0.50;0.33;;;6.90;99.90;;;;;;5137778;27;20419;-78
2022/11/30 12:49:12;;;;;;;0.70;0.60;;;7.00;99.90;;;;;;5137180;27;20436;-78
2022/11/30 12:51:45;;;;;;;1.47;0.70;;;6.90;99.90;;;;;;5137428;27;20437;-77
2022/11/30 12:54:18;;;;;;;0.80;0.80;;;7.00;99.90;;;;;;5137348;27;20450;-77
2022/11/30 12:56:49;;;;;;;5.30;1.07;;;7.00;99.90;;;;;;5137075;27;20459;-78
2022/11/30 12:59:26;;;;;;;1.43;1.33;;;7.00;99.90;;;;;;5137270;27;20427;-77
2022/11/30 13:02:14;;;;;;;0.50;0.43;;;7.00;99.90;;;;;;5137204;27;20430;-77
2022/11/30 13:04:45;;;;;;;0.80;0.40;;;6.90;99.90;;;;;;5137170;27;20458;-77
2022/11/30 13:07:20;;;;;;;0.50;0.50;;;6.90;99.90;;;;;;5137213;27;20427;-77
2022/11/30 13:09:52;;;;;;;1.37;1.17;;;6.90;99.90;;;;;;5137127;27;20787;-77
2022/11/30 13:12:25;;;;;;;0.90;0.50;;;6.90;99.90;;;;;;5137083;27;20438;-77